Accueil
METAR-TAF:

METAR-TAF

Aéroports :

Aéroport international de Mandalay

Mandalay, Birmanie

latitude: 21-59N, longitude: 096-06E, altitude: 74 m

Observation

Le bulletin a été fait il y a 1 heure et 16 minutes, à 22:30 UTC
Vent 5 kt de ouest/nord-ouest
Température 18°C
Humidité 73%
Pression 1012 hPa
Visibilité: 5000 m
Nuages épars à une hauteur de 2000 ft
brume sèche

METAR: VYMD 262230Z 29005KT 5000 HZ SCT020 18/13 Q1012

Heure: 06:16 (23:46 UTC)

Prévision

Le bulletin a été fait il y a 46 minutes, à 23:00 UTC
Prévision valable du 27 à 00 UTC au 27 à 24 UTC
Vent 5 kt de nord-ouest
Visibilité: 7000 m
Quelques nuages à une hauteur de 2500 ft
Temporairement
du 27 à 00 UTC au 27 à 06 UTC
Vent 7 kt de nord
Visibilité: 6000 m
Nuages épars à une hauteur de 2000 ft
brume sèche

TAF: VYMD 262300Z 2700/2724 32005KT 7000 FEW025 TEMPO 2700/2706 35007KT 6000 HZ SCT020

Observations et prévisions météorologiques de plus de 4000 aéroports (messages METAR et TAF).

Les stations disponibles sont représentées par des disques jaunes et rouges sur la carte.

Passer la souris dessus pour voir le nom de la station.

Cliquer dessus pour voir les observations et prévisions météorologiques.

Pour changer de carte: cliquez sur les boutons verts avec une croix noire pour zoomer, sur le bouton vert avec un tiret pour effectuer un zoom arrière, ou sur les flèches vertes pour les cartes adjacentes.


METAR-TAF: